Time;durP1;ratioP1;P1;durP2;ratioP2;P2;SDS_P1;SDS_P2;PMS_P1;PMS_P2;Temp;Humidity;BMP_temperature;BMP_pressure;BME280_temperature;BME280_humidity;BME280_pressure;Samples;Min_cycle;Max_cycle;Signal;HPM_P1;HPM_P2
2021/08/30 00:02:25;;;;;;;9.83;8.83;;;;;;;16.00;82.45;101051.56;1636464;86;22039;-85
2021/08/30 00:04:52;;;;;;;10.53;8.38;;;;;;;15.99;82.47;101055.12;1662225;84;21030;-86
2021/08/30 00:07:21;;;;;;;12.23;8.68;;;;;;;15.97;82.50;101052.86;1638330;87;21482;-86
2021/08/30 00:09:50;;;;;;;10.43;8.73;;;;;;;15.97;82.62;101055.96;1634372;86;21070;-85
2021/08/30 00:12:19;;;;;;;11.60;8.30;;;;;;;15.96;82.59;101048.45;1638502;87;21083;-86
2021/08/30 00:14:47;;;;;;;13.32;9.23;;;;;;;15.96;82.64;101059.06;1689913;84;21877;-85
2021/08/30 00:17:18;;;;;;;11.57;8.55;;;;;;;15.95;82.71;101057.27;1667517;84;21038;-85
2021/08/30 00:19:46;;;;;;;10.75;8.60;;;;;;;15.94;82.71;101060.82;1689316;84;20975;-85
2021/08/30 00:22:14;;;;;;;10.20;8.80;;;;;;;15.93;82.72;101053.72;1639873;85;21015;-85
2021/08/30 00:24:41;;;;;;;9.75;8.75;;;;;;;15.93;82.89;101049.73;1630645;88;22005;-86
2021/08/30 00:27:13;;;;;;;10.40;9.30;;;;;;;15.93;82.89;101051.06;1658113;86;21044;-85
2021/08/30 00:29:38;;;;;;;13.13;9.33;;;;;;;15.91;82.92;101045.73;1691935;84;20994;-86
2021/08/30 00:32:05;;;;;;;10.13;9.05;;;;;;;15.90;82.97;101049.28;1690015;84;21020;-86
2021/08/30 00:34:34;;;;;;;9.58;8.58;;;;;;;15.91;83.03;101050.16;1677128;85;21500;-86
2021/08/30 00:37:06;;;;;;;12.07;9.05;;;;;;;15.90;83.06;101049.73;1648316;87;21050;-86
2021/08/30 00:39:33;;;;;;;11.35;8.00;;;;;;;15.90;83.06;101053.27;1640231;85;21003;-85
2021/08/30 00:42:04;;;;;;;10.32;8.35;;;;;;;15.89;83.11;101044.84;1630332;87;21072;-85
2021/08/30 00:44:32;;;;;;;9.60;8.43;;;;;;;15.89;83.14;101043.52;1658691;86;21073;-85
2021/08/30 00:47:02;;;;;;;9.88;8.70;;;;;;;15.90;83.19;101043.97;1692658;84;21544;-85
2021/08/30 00:49:31;;;;;;;8.83;7.97;;;;;;;15.91;83.23;101047.51;1692584;84;21014;-85
2021/08/30 00:51:57;;;;;;;12.55;8.65;;;;;;;15.91;83.17;101043.08;1691950;82;21711;-85
2021/08/30 00:54:26;;;;;;;12.23;7.90;;;;;;;15.90;83.20;101041.77;1689821;84;21040;-85
2021/08/30 00:56:53;;;;;;;11.30;8.50;;;;;;;15.90;83.20;101050.61;1640209;85;21473;-85
2021/08/30 00:59:20;;;;;;;10.48;9.35;;;;;;;15.90;83.23;101044.42;1630623;88;21001;-85
2021/08/30 01:01:54;;;;;;;10.65;8.75;;;;;;;15.89;83.23;101052.80;1637118;86;21583;-85
2021/08/30 01:04:23;;;;;;;9.43;8.53;;;;;;;15.88;83.24;101049.72;1677224;83;22620;-85
2021/08/30 01:07:06;;;;;;;10.23;9.25;;;;;;;15.89;83.31;101052.80;1629973;87;21022;-86
2021/08/30 01:09:45;;;;;;;9.70;8.63;;;;;;;15.91;83.29;101051.49;1677265;83;27480;-87
2021/08/30 01:12:36;;;;;;;9.30;8.30;;;;;;;15.90;83.30;101049.73;1649094;87;20984;-86
2021/08/30 01:15:29;;;;;;;16.73;14.78;;;;;;;15.89;83.29;101049.27;1677091;83;21076;-86
2021/08/30 01:17:59;;;;;;;13.68;11.55;;;;;;;15.90;83.36;101050.61;1622858;86;21524;-86
2021/08/30 01:20:33;;;;;;;11.22;10.08;;;;;;;15.90;83.29;101055.92;1692357;83;21006;-86
2021/08/30 01:23:03;;;;;;;11.88;10.40;;;;;;;15.90;83.37;101052.39;1688616;83;20979;-85
2021/08/30 01:25:30;;;;;;;10.25;9.23;;;;;;;15.88;83.25;101052.37;1689908;84;21007;-85
2021/08/30 01:27:59;;;;;;;9.08;8.18;;;;;;;15.87;83.24;101056.33;1689699;84;21089;-85
2021/08/30 01:30:29;;;;;;;8.38;7.00;;;;;;;15.84;83.24;101054.97;1691654;84;21734;-86
2021/08/30 01:33:01;;;;;;;10.38;8.75;;;;;;;15.81;83.25;101050.98;1667249;84;21433;-85
2021/08/30 01:35:34;;;;;;;10.25;7.95;;;;;;;15.81;83.38;101055.84;1638031;85;21003;-85
2021/08/30 01:38:03;;;;;;;9.75;8.00;;;;;;;15.80;83.35;101051.39;1629884;88;21076;-86
2021/08/30 01:40:30;;;;;;;8.60;7.60;;;;;;;15.79;83.33;101050.97;1639942;85;21003;-85
2021/08/30 01:43:03;;;;;;;9.15;8.25;;;;;;;15.80;83.42;101043.87;1629643;87;21770;-86
2021/08/30 01:45:31;;;;;;;10.23;7.42;;;;;;;15.81;83.48;101050.53;1677118;85;21026;-85
2021/08/30 01:48:06;;;;;;;9.20;7.78;;;;;;;15.82;83.49;101052.74;1630545;88;20985;-84
2021/08/30 01:50:37;;;;;;;9.35;8.45;;;;;;;15.81;83.46;101054.52;1640005;85;21520;-85
2021/08/30 01:53:05;;;;;;;9.33;7.87;;;;;;;15.80;83.39;101059.36;1677038;85;21067;-85
2021/08/30 01:55:43;;;;;;;9.33;8.30;;;;;;;15.77;83.43;101050.52;1644980;85;20995;-86
2021/08/30 02:00:50;;;;;;;9.00;8.10;;;;;;;15.74;83.51;101045.59;1673901;85;21015;-86
2021/08/30 02:03:23;;;;;;;9.05;8.15;;;;;;;15.74;83.55;101037.64;1631794;86;21557;-84
2021/08/30 02:06:07;;;;;;;12.80;7.95;;;;;;;15.73;83.53;101045.17;1660756;85;21087;-85
2021/08/30 02:08:33;;;;;;;10.28;7.95;;;;;;;15.72;83.57;101047.32;1691571;84;21748;-86
2021/08/30 02:11:10;;;;;;;8.63;7.80;;;;;;;15.73;83.63;101038.53;1663765;84;21034;-83
2021/08/30 02:13:38;;;;;;;9.33;7.80;;;;;;;15.74;83.59;101041.62;1690098;83;21011;-83
2021/08/30 02:16:08;;;;;;;8.78;7.97;;;;;;;15.75;83.64;101031.91;1689903;84;22251;-83
2021/08/30 02:18:49;;;;;;;8.93;7.95;;;;;;;15.74;83.62;101037.64;1664674;84;21119;-83
2021/08/30 02:21:38;;;;;;;9.73;8.05;;;;;;;15.74;83.59;101028.34;1677619;84;21717;-83
2021/08/30 02:24:21;;;;;;;8.78;7.90;;;;;;;15.76;83.58;101031.47;1677582;85;21007;-83
2021/08/30 02:26:53;;;;;;;9.50;8.28;;;;;;;15.73;83.54;101036.29;1677749;85;21011;-83
2021/08/30 02:29:23;;;;;;;128.75;97.27;;;;;;;15.71;83.57;101032.29;1648803;86;21501;-84
2021/08/30 02:31:58;;;;;;;204.63;152.32;;;;;;;15.68;83.52;101033.58;1677829;85;21516;-83
2021/08/30 02:34:25;;;;;;;32.20;25.37;;;;;;;15.64;83.55;101024.27;1658186;85;21756;-83
2021/08/30 02:36:52;;;;;;;15.23;13.62;;;;;;;15.62;83.60;101023.37;1692545;84;21485;-83
2021/08/30 02:39:22;;;;;;;16.73;14.20;;;;;;;15.62;83.69;101024.70;1692705;84;21010;-83
2021/08/30 02:41:47;;;;;;;11.33;9.13;;;;;;;15.63;83.70;101029.11;1658336;85;21059;-83
2021/08/30 02:44:14;;;;;;;10.20;8.53;;;;;;;15.63;83.69;101028.66;1658950;86;21051;-83
2021/08/30 02:46:48;;;;;;;10.13;8.78;;;;;;;15.63;83.77;101026.01;1663613;85;21738;-86
2021/08/30 02:49:15;;;;;;;11.08;8.45;;;;;;;15.63;83.83;101026.45;1627767;88;21024;-86
2021/08/30 02:51:42;;;;;;;9.00;8.08;;;;;;;15.62;83.83;101022.05;1630777;88;21025;-86
2021/08/30 02:54:09;;;;;;;10.48;8.25;;;;;;;15.61;83.83;101025.55;1688076;84;21579;-86
2021/08/30 02:56:41;;;;;;;9.05;8.15;;;;;;;15.60;83.84;101020.70;1668821;84;21010;-85
2021/08/30 02:59:05;;;;;;;10.15;7.45;;;;;;;15.59;83.87;101023.33;1688779;83;21998;-87
2021/08/30 03:01:34;;;;;;;10.85;7.87;;;;;;;15.59;83.89;101023.33;1639507;85;21003;-85
2021/08/30 03:04:05;;;;;;;12.00;8.58;;;;;;;15.59;83.91;101022.88;1609710;87;21040;-84
2021/08/30 03:06:31;;;;;;;9.53;7.95;;;;;;;15.59;83.94;101019.34;1660049;84;21017;-85
2021/08/30 03:09:01;;;;;;;9.28;7.35;;;;;;;15.59;84.00;101024.21;1692668;84;21026;-85
2021/08/30 03:11:28;;;;;;;12.45;7.50;;;;;;;15.58;83.95;101027.76;1664265;84;21514;-85
2021/08/30 03:13:57;;;;;;;12.95;8.48;;;;;;;15.60;84.03;101030.39;1667697;84;21034;-86
2021/08/30 03:16:25;;;;;;;14.40;10.03;;;;;;;15.62;84.13;101028.67;1690241;84;21007;-87
2021/08/30 03:18:52;;;;;;;10.18;7.45;;;;;;;15.65;84.18;101028.23;1689839;84;21287;-85
2021/08/30 03:21:19;;;;;;;10.48;8.30;;;;;;;15.68;84.23;101030.05;1677216;84;21931;-85
2021/08/30 03:23:46;;;;;;;12.82;7.95;;;;;;;15.71;84.24;101030.97;1648808;86;21752;-86
2021/08/30 03:26:15;;;;;;;12.15;7.80;;;;;;;15.75;84.25;101035.89;1677658;85;21303;-85
2021/08/30 03:28:46;;;;;;;9.10;8.18;;;;;;;15.77;84.24;101034.14;1648961;87;21007;-85
2021/08/30 03:31:15;;;;;;;11.00;8.43;;;;;;;15.79;84.22;101040.34;1640013;85;21900;-85
2021/08/30 03:33:43;;;;;;;13.48;8.43;;;;;;;15.80;84.17;101038.57;1639749;85;21651;-85
2021/08/30 03:36:12;;;;;;;11.70;8.95;;;;;;;15.81;84.12;101041.25;1676917;85;21015;-85
2021/08/30 03:38:38;;;;;;;11.20;8.25;;;;;;;15.82;84.11;101038.14;1630568;88;21025;-85
2021/08/30 03:41:08;;;;;;;11.85;7.90;;;;;;;15.82;84.08;101041.71;1658825;86;21039;-86
2021/08/30 03:43:34;;;;;;;10.23;8.10;;;;;;;15.84;84.15;101035.06;1691970;84;20990;-86
2021/08/30 03:46:01;;;;;;;8.85;7.90;;;;;;;15.85;84.16;101031.09;1690125;84;21587;-86
2021/08/30 03:48:28;;;;;;;11.15;7.78;;;;;;;15.88;84.22;101031.13;1662646;84;21750;-86
2021/08/30 03:50:54;;;;;;;12.75;8.38;;;;;;;15.92;84.21;101038.69;1608750;87;21056;-86
2021/08/30 03:53:29;;;;;;;10.13;7.90;;;;;;;15.92;84.09;101030.72;1640542;85;21003;-86
2021/08/30 03:55:58;;;;;;;10.90;7.97;;;;;;;15.94;84.18;101035.60;1607242;88;21085;-85
2021/08/30 03:58:29;;;;;;;8.93;7.90;;;;;;;15.95;84.05;101038.69;1692543;84;21062;-85
2021/08/30 04:01:04;;;;;;;16.12;8.38;;;;;;;15.93;84.06;101030.73;1689490;83;22717;-86
2021/08/30 04:03:24;;;;;;;10.82;8.00;;;;;;;15.92;84.04;101031.60;1688027;83;21030;-86
2021/08/30 04:05:51;;;;;;;12.93;7.83;;;;;;;15.93;84.02;101035.13;1690266;84;21010;-86
2021/08/30 04:08:20;;;;;;;9.83;8.43;;;;;;;15.95;84.09;101036.03;1639028;85;20995;-95
2021/08/30 04:10:47;;;;;;;10.23;8.53;;;;;;;15.97;84.05;101031.62;1631338;88;21009;-89
2021/08/30 04:13:14;;;;;;;10.25;8.35;;;;;;;15.98;84.12;101032.53;1636919;86;21762;-89
2021/08/30 04:15:44;;;;;;;9.68;7.95;;;;;;;16.00;84.14;101032.10;1692674;84;21026;-89
2021/08/30 04:18:09;;;;;;;8.30;7.47;;;;;;;16.02;84.11;101030.34;1691515;83;21488;-90
2021/08/30 04:20:39;;;;;;;9.28;7.78;;;;;;;16.02;84.06;101032.55;1690342;84;21312;-91
2021/08/30 04:23:10;;;;;;;11.08;9.00;;;;;;;16.03;84.06;101029.03;1677952;85;21000;-93
2021/08/30 04:25:42;;;;;;;12.82;8.13;;;;;;;16.04;84.06;101031.23;1605391;87;21555;-96
2021/08/30 04:28:10;;;;;;;13.18;7.87;;;;;;;16.06;84.09;101033.47;1654436;85;20986;-92
2021/08/30 04:30:39;;;;;;;10.18;8.05;;;;;;;16.08;84.07;101037.02;1632914;86;21072;-94
2021/08/30 04:33:16;;;;;;;10.85;8.28;;;;;;;16.08;84.13;101035.23;1654530;85;21032;-94
2021/08/30 04:35:36;;;;;;;8.15;7.33;;;;;;;16.12;84.09;101037.06;1630011;86;20989;-90
2021/08/30 04:38:04;;;;;;;12.80;8.40;;;;;;;16.13;84.03;101036.62;1654764;86;22458;-90
2021/08/30 04:40:39;;;;;;;10.43;8.38;;;;;;;16.15;84.06;101038.84;1633584;87;20993;-92
2021/08/30 04:43:15;;;;;;;9.60;8.60;;;;;;;16.16;84.01;101035.73;1654521;86;21013;-93
2021/08/30 04:45:45;;;;;;;11.25;7.70;;;;;;;16.18;84.05;101036.63;1652868;86;20981;-93
2021/08/30 04:48:13;;;;;;;37.00;11.03;;;;;;;16.20;84.06;101033.54;1631952;86;21621;-88
2021/08/30 04:50:42;;;;;;;65.03;15.63;;;;;;;16.22;84.04;101031.37;1653839;86;21458;-89
2021/08/30 04:53:09;;;;;;;45.23;12.82;;;;;;;16.26;84.07;101041.58;1653216;85;21473;-87
2021/08/30 04:55:58;;;;;;;21.27;10.48;;;;;;;16.27;84.03;101034.95;1653919;85;21005;-95
2021/08/30 04:58:31;;;;;;;83.52;16.97;;;;;;;16.31;84.05;101038.06;1634281;86;20985;-95
2021/08/30 05:01:08;;;;;;;122.40;25.72;;;;;;;16.33;83.93;101038.08;1633242;85;21060;-94
2021/08/30 05:03:37;;;;;;;103.60;23.70;;;;;;;16.35;83.89;101039.39;1653860;86;22166;-94
2021/08/30 05:06:04;;;;;;;58.80;18.25;;;;;;;16.37;83.91;101042.94;1654436;85;21600;-94
2021/08/30 05:08:33;;;;;;;31.10;12.28;;;;;;;16.41;84.04;101042.11;1632321;86;21514;-93
2021/08/30 05:11:01;;;;;;;22.27;11.78;;;;;;;16.44;83.87;101038.12;1653127;86;21697;-93
2021/08/30 05:13:30;;;;;;;42.15;13.88;;;;;;;16.47;83.96;101040.80;1654403;86;21040;-93
2021/08/30 05:16:01;;;;;;;42.13;14.40;;;;;;;16.52;84.01;101038.62;1653756;85;22365;-95
2021/08/30 05:18:29;;;;;;;36.38;13.83;;;;;;;16.56;83.97;101035.98;1688949;83;21007;-93
2021/08/30 05:20:57;;;;;;;29.30;12.80;;;;;;;16.61;83.87;101038.20;1702872;83;21415;-95
2021/08/30 05:23:29;;;;;;;22.37;11.63;;;;;;;16.64;83.75;101032.91;1722092;83;20961;-95
2021/08/30 05:26:03;;;;;;;28.67;13.45;;;;;;;16.67;83.78;101030.28;1682470;83;20976;-96
2021/08/30 05:28:49;;;;;;;;;;;;;;;;;;;;;
2021/08/30 05:32:08;;;;;;;;;;;;;;;;;;;;;
2021/08/30 05:34:32;;;;;;;20.20;11.78;;;;;;;16.82;83.58;101028.12;1711300;81;21018;-95
2021/08/30 05:37:00;;;;;;;74.67;17.62;;;;;;;16.88;83.52;101033.50;1704037;83;20960;-92
2021/08/30 05:39:31;;;;;;;22.45;11.73;;;;;;;16.93;83.43;101032.16;1704307;84;21059;-94
2021/08/30 05:41:56;;;;;;;16.02;10.70;;;;;;;16.97;83.43;101034.86;1704268;84;21822;-95
2021/08/30 05:44:26;;;;;;;17.90;12.33;;;;;;;17.04;83.40;101034.42;1663205;84;21062;-92
2021/08/30 05:46:53;;;;;;;13.68;11.70;;;;;;;17.10;83.45;101038.00;1724204;83;21006;-90
2021/08/30 05:49:23;;;;;;;13.80;11.80;;;;;;;17.16;83.29;101039.78;1691521;84;21272;-90
2021/08/30 05:51:50;;;;;;;13.62;12.20;;;;;;;17.22;83.24;101040.24;1723779;83;21556;-88
2021/08/30 05:54:17;;;;;;;14.10;12.53;;;;;;;17.26;83.02;101032.70;1691366;84;21543;-89
2021/08/30 05:56:44;;;;;;;17.80;15.85;;;;;;;17.30;82.93;101041.13;1723881;83;21078;-86
2021/08/30 05:59:16;;;;;;;20.72;17.23;;;;;;;17.35;82.75;101037.17;1678970;84;21457;-88
2021/08/30 06:01:46;;;;;;;22.15;18.48;;;;;;;17.37;82.61;101036.27;1689935;84;21039;-88
2021/08/30 06:04:12;;;;;;;20.77;18.15;;;;;;;17.42;82.67;101037.17;1716922;81;21027;-88
2021/08/30 06:06:38;;;;;;;16.30;14.70;;;;;;;17.48;82.64;101032.30;1686753;84;21727;-88
2021/08/30 06:09:08;;;;;;;15.65;14.10;;;;;;;17.53;82.48;101036.28;1663733;84;21015;-88
2021/08/30 06:11:42;;;;;;;15.55;13.95;;;;;;;17.62;82.55;101028.31;1659817;84;20988;-88
2021/08/30 06:14:12;;;;;;;14.80;13.25;;;;;;;17.73;82.47;101025.20;1626221;86;21076;-88
2021/08/30 06:16:40;;;;;;;14.95;13.55;;;;;;;17.87;82.44;101017.27;1682624;84;21034;-88
2021/08/30 06:19:09;;;;;;;16.07;13.28;;;;;;;18.01;82.25;101019.91;1669611;83;21725;-88
2021/08/30 06:21:36;;;;;;;14.15;12.85;;;;;;;18.13;82.08;101019.90;1667832;85;20980;-88
2021/08/30 06:24:02;;;;;;;21.70;12.88;;;;;;;18.23;81.93;101018.09;1684685;84;21023;-88
2021/08/30 06:26:36;;;;;;;100.67;22.67;;;;;;;18.35;81.82;101019.38;1658186;84;21183;-88
2021/08/30 06:29:09;;;;;;;60.08;17.77;;;;;;;18.45;81.65;101013.15;1656232;85;21035;-88
2021/08/30 06:31:39;;;;;;;30.17;14.33;;;;;;;18.56;81.42;101017.54;1647452;84;21763;-88
2021/08/30 06:34:06;;;;;;;13.78;12.35;;;;;;;18.60;81.30;101013.96;1688658;83;21038;-88
2021/08/30 06:36:33;;;;;;;14.73;11.83;;;;;;;18.70;81.17;101018.38;1681596;82;20998;-88
2021/08/30 06:39:02;;;;;;;35.52;14.90;;;;;;;18.79;80.97;101018.34;1659935;84;21032;-88
2021/08/30 06:41:30;;;;;;;18.02;12.40;;;;;;;18.86;80.79;101018.34;1658599;84;21110;-87
2021/08/30 06:43:57;;;;;;;18.45;12.47;;;;;;;18.93;80.69;101017.42;1660088;84;21740;-88
2021/08/30 06:46:25;;;;;;;15.15;11.48;;;;;;;18.98;80.55;101020.50;1659651;84;20988;-88
2021/08/30 06:48:52;;;;;;;16.50;11.43;;;;;;;19.02;80.39;101018.25;1660093;84;21036;-88
2021/08/30 06:51:29;;;;;;;12.47;10.93;;;;;;;19.07;80.33;101020.91;1698853;82;21035;-88
2021/08/30 06:53:58;;;;;;;12.07;10.98;;;;;;;19.16;80.33;101018.62;1715795;83;20964;-88
2021/08/30 06:56:37;;;;;;;12.58;10.60;;;;;;;19.23;80.15;101015.89;1700988;83;22377;-88
2021/08/30 06:59:06;;;;;;;11.57;10.48;;;;;;;19.30;79.88;101018.09;1664875;84;21712;-88
2021/08/30 07:01:38;;;;;;;12.25;10.58;;;;;;;19.34;79.71;101014.95;1674414;84;20990;-88
2021/08/30 07:04:09;;;;;;;12.33;10.65;;;;;;;19.42;79.74;101015.31;1682346;83;21168;-88
2021/08/30 07:06:45;;;;;;;13.15;11.05;;;;;;;19.58;79.78;101020.11;1666052;85;21474;-88
2021/08/30 07:09:13;;;;;;;13.45;10.72;;;;;;;19.71;79.71;101012.02;1633288;86;21104;-88
2021/08/30 07:11:43;;;;;;;12.28;11.08;;;;;;;19.83;79.37;101013.72;1641612;86;21005;-88
2021/08/30 07:14:16;;;;;;;12.37;11.00;;;;;;;19.88;79.17;101008.77;1657848;84;21579;-88
2021/08/30 07:16:46;;;;;;;12.60;9.80;;;;;;;19.97;79.13;101010.44;1668650;84;21398;-88
2021/08/30 07:19:11;;;;;;;10.40;9.33;;;;;;;20.05;78.82;101004.59;1658173;84;21062;-88
2021/08/30 07:21:39;;;;;;;11.38;9.48;;;;;;;20.15;78.76;101006.25;1608609;85;40283;-88
2021/08/30 07:24:07;;;;;;;11.08;9.40;;;;;;;20.26;78.51;101007.48;1655567;84;21035;-88
2021/08/30 07:26:33;;;;;;;9.85;8.95;;;;;;;20.32;78.15;101022.57;1688162;82;21047;-87
2021/08/30 07:29:07;;;;;;;15.40;10.93;;;;;;;20.34;78.12;101017.63;1663479;83;21651;-88
2021/08/30 07:31:28;;;;;;;11.90;9.60;;;;;;;20.42;77.96;101011.31;1647245;84;21561;-88
2021/08/30 07:33:59;;;;;;;10.65;9.18;;;;;;;20.44;77.59;101014.42;1686278;84;21027;-87
2021/08/30 07:36:26;;;;;;;10.08;9.03;;;;;;;20.45;77.64;101014.84;1697304;82;21018;-88
2021/08/30 07:38:52;;;;;;;10.13;9.18;;;;;;;20.48;77.67;101015.28;1697228;84;21528;-85
2021/08/30 07:41:21;;;;;;;13.13;9.05;;;;;;;20.51;77.65;101016.56;1697156;82;21538;-89
2021/08/30 07:43:50;;;;;;;18.40;10.93;;;;;;;20.53;77.50;101021.01;1655004;85;21448;-90
2021/08/30 07:46:20;;;;;;;12.47;8.78;;;;;;;20.61;77.56;101022.28;1631953;86;21702;-91
2021/08/30 07:48:45;;;;;;;12.58;8.58;;;;;;;20.71;77.46;101017.23;1631178;86;21032;-88
2021/08/30 07:51:15;;;;;;;10.93;8.40;;;;;;;20.84;77.37;101023.78;1631578;87;21069;-88
2021/08/30 07:53:40;;;;;;;8.98;8.08;;;;;;;21.01;77.29;101017.73;1680721;84;21120;-88
2021/08/30 07:56:09;;;;;;;8.50;7.58;;;;;;;21.10;76.60;101019.41;1698842;84;21004;-88
2021/08/30 07:58:45;;;;;;;9.48;7.12;;;;;;;21.06;75.95;101023.02;1698927;84;20995;-88
2021/08/30 08:01:12;;;;;;;8.40;7.03;;;;;;;21.06;75.52;101021.67;1680111;84;21017;-88
2021/08/30 08:03:40;;;;;;;10.43;6.65;;;;;;;20.98;75.39;101020.45;1676774;83;21484;-87
2021/08/30 08:06:07;;;;;;;10.63;7.17;;;;;;;20.91;75.31;101021.00;1688766;83;21353;-88
2021/08/30 08:08:34;;;;;;;9.25;6.72;;;;;;;20.85;75.10;101023.73;1688860;85;21035;-88
2021/08/30 08:11:00;;;;;;;9.20;6.65;;;;;;;20.73;74.88;101023.91;1688792;83;21780;-88
2021/08/30 08:13:29;;;;;;;9.30;6.28;;;;;;;20.56;74.49;101025.42;1688203;83;21003;-88
2021/08/30 08:15:56;;;;;;;6.83;6.17;;;;;;;20.37;74.84;101026.97;1687509;85;21507;-88
2021/08/30 08:18:22;;;;;;;8.08;5.72;;;;;;;20.19;74.67;101028.49;1678043;84;21380;-88
2021/08/30 08:20:49;;;;;;;7.03;5.60;;;;;;;20.00;74.75;101021.98;1697662;84;20987;-81
2021/08/30 08:23:16;;;;;;;7.03;5.70;;;;;;;19.84;74.90;101024.39;1698040;83;21728;-81
2021/08/30 08:25:43;;;;;;;9.53;6.17;;;;;;;19.79;75.23;101014.19;1698306;83;21066;-82
2021/08/30 08:28:09;;;;;;;6.60;5.83;;;;;;;19.77;75.56;101014.66;1695494;82;21023;-82
2021/08/30 08:30:36;;;;;;;9.13;6.42;;;;;;;19.71;75.39;101024.03;1698813;83;20961;-82
2021/08/30 08:33:04;;;;;;;6.58;4.95;;;;;;;19.74;75.91;101018.67;1688746;83;21032;-82
2021/08/30 08:35:31;;;;;;;6.85;5.50;;;;;;;19.79;76.09;101026.20;1694804;83;21741;-82
2021/08/30 08:37:57;;;;;;;8.13;5.95;;;;;;;19.91;75.87;101031.88;1695037;84;20999;-82
2021/08/30 08:40:24;;;;;;;6.33;5.72;;;;;;;20.02;76.26;101034.00;1714003;81;20992;-82
2021/08/30 08:42:53;;;;;;;6.67;5.97;;;;;;;20.16;76.01;101028.09;1699598;81;21023;-81
2021/08/30 08:45:20;;;;;;;8.60;6.00;;;;;;;20.20;75.60;101031.61;1667960;83;21087;-81
2021/08/30 08:47:47;;;;;;;7.58;5.25;;;;;;;20.37;75.83;101032.31;1665016;84;21746;-80
2021/08/30 08:50:16;;;;;;;7.50;6.50;;;;;;;20.47;75.26;101025.52;1675627;84;21504;-83
2021/08/30 08:52:43;;;;;;;13.85;7.40;;;;;;;20.56;75.16;101029.44;1663449;84;21468;-81
2021/08/30 08:55:11;;;;;;;16.57;6.05;;;;;;;20.80;75.23;101031.39;1688465;83;21366;-81
2021/08/30 08:57:38;;;;;;;12.13;7.05;;;;;;;21.05;74.94;101030.16;1695143;84;21010;-80
2021/08/30 09:00:11;;;;;;;21.07;6.62;;;;;;;21.20;74.67;101029.06;1691415;83;21789;-81
2021/08/30 09:02:38;;;;;;;6.83;5.80;;;;;;;21.34;74.52;101035.55;1684816;85;20975;-81
2021/08/30 09:05:07;;;;;;;6.35;5.22;;;;;;;21.38;73.85;101033.70;1698763;82;21052;-81
2021/08/30 09:07:40;;;;;;;6.25;4.87;;;;;;;21.31;73.02;101032.47;1698886;83;21346;-81
2021/08/30 09:10:10;;;;;;;6.75;4.58;;;;;;;21.33;73.16;101034.66;1715066;81;21007;-81
2021/08/30 09:12:35;;;;;;;11.08;5.22;;;;;;;21.30;72.90;101022.69;1691942;83;21756;-81
2021/08/30 09:15:23;;;;;;;13.43;5.60;;;;;;;21.26;72.68;101023.61;1699302;83;21027;-83
2021/08/30 09:17:54;;;;;;;4.87;4.37;;;;;;;21.01;72.19;101028.45;1697372;82;21048;-82
2021/08/30 09:20:31;;;;;;;7.90;4.53;;;;;;;21.01;72.19;101028.45;1704514;82;21018;-92
2021/08/30 09:23:12;;;;;;;7.08;4.28;;;;;;;20.77;72.33;101027.84;1661891;84;20969;-89
2021/08/30 09:25:42;;;;;;;5.20;4.12;;;;;;;20.56;72.38;101021.41;1678631;84;21027;-88
2021/08/30 09:28:09;;;;;;;4.30;3.90;;;;;;;20.23;72.47;101030.22;1671112;83;21091;-86
2021/08/30 09:30:36;;;;;;;4.85;3.85;;;;;;;20.09;73.25;101026.37;1661910;85;21038;-88
2021/08/30 09:33:03;;;;;;;6.03;3.62;;;;;;;20.16;73.42;101021.86;1667796;84;21012;-88
2021/08/30 09:35:29;;;;;;;4.42;4.00;;;;;;;20.24;73.45;101019.11;1683220;84;21000;-87
2021/08/30 09:37:56;;;;;;;6.12;3.90;;;;;;;20.20;73.09;101020.92;1668977;84;21731;-88
2021/08/30 09:40:29;;;;;;;4.83;3.60;;;;;;;20.18;73.16;101026.28;1670540;84;21021;-87
2021/08/30 09:42:57;;;;;;;6.97;4.20;;;;;;;20.20;73.32;101030.28;1666757;83;21070;-86
2021/08/30 09:45:26;;;;;;;5.30;3.15;;;;;;;20.24;72.90;101024.45;1698378;82;21415;-87
2021/08/30 09:47:58;;;;;;;4.85;4.12;;;;;;;20.23;72.93;101016.86;1698637;84;21125;-86
2021/08/30 09:50:37;;;;;;;8.63;3.30;;;;;;;20.26;72.82;101022.64;1688798;83;22719;-87
2021/08/30 09:53:05;;;;;;;8.15;4.00;;;;;;;20.31;72.69;101023.03;1640487;85;21542;-86
2021/08/30 09:55:36;;;;;;;7.25;3.15;;;;;;;20.39;72.42;101017.59;1683513;84;21007;-93
2021/08/30 09:58:11;;;;;;;9.88;3.35;;;;;;;20.40;72.02;101030.04;1681325;83;21135;-91
2021/08/30 10:00:36;;;;;;;10.90;3.27;;;;;;;20.38;71.87;101029.17;1678674;83;20991;-88
2021/08/30 10:03:03;;;;;;;6.33;4.67;;;;;;;20.37;71.81;101030.09;1689545;84;22412;-88
2021/08/30 10:05:31;;;;;;;10.05;6.85;;;;;;;20.37;71.85;101032.31;1665545;85;20971;-87
2021/08/30 10:08:00;;;;;;;3.40;3.10;;;;;;;20.49;72.15;101039.77;1620714;86;21043;-87
2021/08/30 10:10:26;;;;;;;5.67;4.10;;;;;;;20.61;71.73;101036.99;1697314;84;21045;-88
2021/08/30 10:12:53;;;;;;;9.08;3.80;;;;;;;20.55;71.36;101040.59;1705709;82;21115;-84
2021/08/30 10:15:21;;;;;;;3.60;3.05;;;;;;;20.44;71.36;101042.50;1717764;83;21743;-87
2021/08/30 10:17:50;;;;;;;3.70;3.30;;;;;;;20.37;71.38;101042.12;1676515;84;21068;-87
2021/08/30 10:20:29;;;;;;;5.22;3.10;;;;;;;20.36;71.28;101040.34;1698924;82;21059;-87
2021/08/30 10:23:03;;;;;;;5.08;3.60;;;;;;;20.33;71.44;101042.61;1706642;83;21289;-87
2021/08/30 10:25:34;;;;;;;6.35;3.55;;;;;;;20.37;71.48;101043.01;1701913;81;20979;-87
2021/08/30 10:28:05;;;;;;;5.55;3.67;;;;;;;20.38;71.59;101042.55;1704668;82;21750;-87
2021/08/30 10:30:36;;;;;;;4.72;3.35;;;;;;;20.54;71.81;101033.91;1689914;83;21042;-87
2021/08/30 10:33:07;;;;;;;4.03;2.92;;;;;;;20.70;71.31;101036.88;1706997;82;21002;-87
2021/08/30 10:35:37;;;;;;;15.05;3.67;;;;;;;20.85;71.02;101040.25;1694141;83;21068;-87
2021/08/30 10:38:06;;;;;;;6.50;2.77;;;;;;;20.78;70.46;101042.14;1683991;84;21002;-87
2021/08/30 10:40:35;;;;;;;6.33;3.27;;;;;;;20.88;70.77;101036.20;1696352;83;22649;-87
2021/08/30 10:43:10;;;;;;;3.42;3.12;;;;;;;20.99;70.33;101041.42;1708893;83;21000;-87
2021/08/30 10:45:49;;;;;;;5.00;2.70;;;;;;;21.23;69.83;101010.72;1666711;84;20972;-87
2021/08/30 10:48:16;;;;;;;4.72;3.00;;;;;;;21.28;69.35;101015.56;1697869;83;21026;-87
2021/08/30 10:50:53;;;;;;;3.20;2.42;;;;;;;21.28;69.35;101015.56;1666152;83;21443;-87
2021/08/30 10:53:23;;;;;;;5.85;2.90;;;;;;;21.33;69.05;101034.66;1693929;84;22733;-87
2021/08/30 10:55:56;;;;;;;2.85;2.65;;;;;;;21.38;68.88;101035.95;1690898;83;21026;-87
2021/08/30 10:58:25;;;;;;;3.40;2.95;;;;;;;21.35;68.60;101035.52;1691031;83;21039;-87
2021/08/30 11:01:01;;;;;;;3.33;2.72;;;;;;;21.36;68.88;101037.77;1694798;81;21047;-87
2021/08/30 11:03:33;;;;;;;2.90;2.60;;;;;;;21.29;68.62;101034.75;1659703;85;21033;-87
2021/08/30 11:06:12;;;;;;;4.40;3.30;;;;;;;21.29;68.62;101034.75;1679760;83;21738;-87
2021/08/30 11:08:43;;;;;;;6.40;2.45;;;;;;;21.51;68.92;101038.00;1699867;82;20974;-87
2021/08/30 11:11:26;;;;;;;3.70;2.40;;;;;;;21.76;68.78;101037.16;1720496;83;21058;-87
2021/08/30 11:14:08;;;;;;;4.37;2.58;;;;;;;22.01;68.48;101030.03;1702875;82;21055;-87
2021/08/30 11:16:36;;;;;;;4.00;2.98;;;;;;;22.08;68.01;101038.40;1718007;83;21587;-87
2021/08/30 11:19:13;;;;;;;2.77;2.50;;;;;;;22.06;67.57;101036.20;1717934;83;22596;-87
2021/08/30 11:21:54;;;;;;;5.47;4.10;;;;;;;21.94;67.29;101034.17;1689701;81;21039;-87
2021/08/30 11:24:35;;;;;;;5.53;3.20;;;;;;;21.93;67.64;101044.91;1662423;84;21117;-87
2021/08/30 11:27:11;;;;;;;3.00;2.70;;;;;;;22.00;67.42;101050.60;1684651;84;22282;-87
2021/08/30 11:29:51;;;;;;;3.77;3.47;;;;;;;21.90;67.03;101041.84;1668299;84;20996;-87
2021/08/30 11:32:17;;;;;;;12.78;3.98;;;;;;;21.91;66.87;101050.76;1664531;84;21830;-87
2021/08/30 11:34:43;;;;;;;10.18;5.28;;;;;;;21.89;67.02;101052.12;1665705;85;21491;-86
2021/08/30 11:37:13;;;;;;;6.10;3.67;;;;;;;21.96;66.75;101045.30;1665785;85;20992;-87
2021/08/30 11:39:41;;;;;;;5.08;2.75;;;;;;;22.11;66.90;101046.36;1669154;84;21375;-87